sensor_id;sensor_type;location;lat;lon;timestamp;P1;durP1;ratioP1;P2;durP2;ratioP2
4696;SDS011;2362;50.780;0.292;2024-01-30T00:01:35;48.00;;;13.80;;
4696;SDS011;2362;50.780;0.292;2024-01-30T00:04:02;29.77;;;13.07;;
4696;SDS011;2362;50.780;0.292;2024-01-30T00:06:28;31.93;;;13.83;;
4696;SDS011;2362;50.780;0.292;2024-01-30T00:08:54;35.07;;;11.73;;
4696;SDS011;2362;50.780;0.292;2024-01-30T00:11:19;28.90;;;12.40;;
4696;SDS011;2362;50.780;0.292;2024-01-30T00:13:46;24.90;;;12.57;;
4696;SDS011;2362;50.780;0.292;2024-01-30T00:16:21;33.57;;;12.47;;
4696;SDS011;2362;50.780;0.292;2024-01-30T00:18:49;24.47;;;11.93;;
4696;SDS011;2362;50.780;0.292;2024-01-30T00:21:15;29.93;;;12.13;;
4696;SDS011;2362;50.780;0.292;2024-01-30T00:23:41;26.63;;;11.50;;
4696;SDS011;2362;50.780;0.292;2024-01-30T00:26:06;25.57;;;11.77;;
4696;SDS011;2362;50.780;0.292;2024-01-30T00:28:32;35.33;;;12.33;;
4696;SDS011;2362;50.780;0.292;2024-01-30T00:30:58;21.40;;;11.13;;
4696;SDS011;2362;50.780;0.292;2024-01-30T00:33:23;30.67;;;11.80;;
4696;SDS011;2362;50.780;0.292;2024-01-30T00:35:49;26.80;;;11.10;;
4696;SDS011;2362;50.780;0.292;2024-01-30T00:38:14;32.90;;;12.07;;
4696;SDS011;2362;50.780;0.292;2024-01-30T00:40:40;32.43;;;11.40;;
4696;SDS011;2362;50.780;0.292;2024-01-30T00:43:06;33.40;;;12.40;;
4696;SDS011;2362;50.780;0.292;2024-01-30T00:45:32;33.93;;;12.00;;
4696;SDS011;2362;50.780;0.292;2024-01-30T00:47:57;28.57;;;10.97;;
4696;SDS011;2362;50.780;0.292;2024-01-30T00:50:23;33.67;;;11.63;;
4696;SDS011;2362;50.780;0.292;2024-01-30T00:52:48;30.47;;;11.50;;
4696;SDS011;2362;50.780;0.292;2024-01-30T00:55:14;27.97;;;12.70;;
4696;SDS011;2362;50.780;0.292;2024-01-30T00:57:40;34.33;;;12.23;;
4696;SDS011;2362;50.780;0.292;2024-01-30T01:00:06;32.03;;;12.27;;
4696;SDS011;2362;50.780;0.292;2024-01-30T01:02:34;26.60;;;12.13;;
4696;SDS011;2362;50.780;0.292;2024-01-30T01:05:03;31.03;;;12.10;;
4696;SDS011;2362;50.780;0.292;2024-01-30T01:07:28;37.10;;;12.30;;
4696;SDS011;2362;50.780;0.292;2024-01-30T01:09:54;34.40;;;13.10;;
4696;SDS011;2362;50.780;0.292;2024-01-30T01:12:19;33.10;;;12.83;;
4696;SDS011;2362;50.780;0.292;2024-01-30T01:14:45;33.17;;;12.60;;
4696;SDS011;2362;50.780;0.292;2024-01-30T01:17:11;30.50;;;12.33;;
4696;SDS011;2362;50.780;0.292;2024-01-30T01:19:37;36.33;;;13.33;;
4696;SDS011;2362;50.780;0.292;2024-01-30T01:22:02;43.33;;;13.07;;
4696;SDS011;2362;50.780;0.292;2024-01-30T01:24:30;38.27;;;13.50;;
4696;SDS011;2362;50.780;0.292;2024-01-30T01:26:57;35.30;;;13.07;;
4696;SDS011;2362;50.780;0.292;2024-01-30T01:29:23;45.63;;;14.53;;
4696;SDS011;2362;50.780;0.292;2024-01-30T01:31:54;30.83;;;12.97;;
4696;SDS011;2362;50.780;0.292;2024-01-30T01:34:21;31.57;;;13.47;;
4696;SDS011;2362;50.780;0.292;2024-01-30T01:36:46;34.80;;;12.33;;
4696;SDS011;2362;50.780;0.292;2024-01-30T01:39:12;47.67;;;12.87;;
4696;SDS011;2362;50.780;0.292;2024-01-30T01:41:38;36.60;;;11.93;;
4696;SDS011;2362;50.780;0.292;2024-01-30T01:44:03;36.07;;;10.80;;
4696;SDS011;2362;50.780;0.292;2024-01-30T01:46:30;36.80;;;11.80;;
4696;SDS011;2362;50.780;0.292;2024-01-30T01:48:58;44.87;;;12.93;;
4696;SDS011;2362;50.780;0.292;2024-01-30T01:51:25;46.40;;;12.83;;
4696;SDS011;2362;50.780;0.292;2024-01-30T01:53:56;41.43;;;11.27;;
4696;SDS011;2362;50.780;0.292;2024-01-30T01:56:24;36.40;;;11.30;;
4696;SDS011;2362;50.780;0.292;2024-01-30T01:58:51;48.83;;;10.27;;
4696;SDS011;2362;50.780;0.292;2024-01-30T02:01:19;26.00;;;7.40;;
4696;SDS011;2362;50.780;0.292;2024-01-30T02:03:46;23.63;;;5.90;;
4696;SDS011;2362;50.780;0.292;2024-01-30T02:06:15;29.67;;;5.43;;
4696;SDS011;2362;50.780;0.292;2024-01-30T02:08:41;34.13;;;6.37;;
4696;SDS011;2362;50.780;0.292;2024-01-30T02:11:07;32.97;;;5.87;;
4696;SDS011;2362;50.780;0.292;2024-01-30T02:13:34;28.33;;;5.17;;
4696;SDS011;2362;50.780;0.292;2024-01-30T02:15:59;31.07;;;5.80;;
4696;SDS011;2362;50.780;0.292;2024-01-30T02:18:26;29.93;;;5.03;;
4696;SDS011;2362;50.780;0.292;2024-01-30T02:20:52;24.23;;;4.87;;
4696;SDS011;2362;50.780;0.292;2024-01-30T02:23:19;32.13;;;4.83;;
4696;SDS011;2362;50.780;0.292;2024-01-30T02:25:45;32.63;;;4.10;;
4696;SDS011;2362;50.780;0.292;2024-01-30T02:28:14;34.10;;;4.80;;
4696;SDS011;2362;50.780;0.292;2024-01-30T02:30:42;26.80;;;4.47;;
4696;SDS011;2362;50.780;0.292;2024-01-30T02:33:08;18.73;;;4.07;;
4696;SDS011;2362;50.780;0.292;2024-01-30T02:35:34;24.40;;;3.57;;
4696;SDS011;2362;50.780;0.292;2024-01-30T02:38:00;21.97;;;3.60;;
4696;SDS011;2362;50.780;0.292;2024-01-30T02:40:26;23.30;;;3.77;;
4696;SDS011;2362;50.780;0.292;2024-01-30T02:42:52;18.13;;;2.83;;
4696;SDS011;2362;50.780;0.292;2024-01-30T02:45:18;15.87;;;2.27;;
4696;SDS011;2362;50.780;0.292;2024-01-30T02:47:43;13.93;;;2.20;;
4696;SDS011;2362;50.780;0.292;2024-01-30T02:50:09;8.90;;;1.60;;
4696;SDS011;2362;50.780;0.292;2024-01-30T02:52:35;11.47;;;2.83;;
4696;SDS011;2362;50.780;0.292;2024-01-30T02:55:00;15.57;;;2.90;;
4696;SDS011;2362;50.780;0.292;2024-01-30T02:57:27;9.43;;;2.13;;
4696;SDS011;2362;50.780;0.292;2024-01-30T02:59:53;15.13;;;2.17;;
4696;SDS011;2362;50.780;0.292;2024-01-30T03:02:19;16.50;;;2.60;;
4696;SDS011;2362;50.780;0.292;2024-01-30T03:04:45;13.73;;;2.00;;
4696;SDS011;2362;50.780;0.292;2024-01-30T03:07:11;5.77;;;1.90;;
4696;SDS011;2362;50.780;0.292;2024-01-30T03:09:36;8.97;;;1.60;;
4696;SDS011;2362;50.780;0.292;2024-01-30T03:12:02;9.93;;;2.13;;
4696;SDS011;2362;50.780;0.292;2024-01-30T03:14:30;25.50;;;3.40;;
4696;SDS011;2362;50.780;0.292;2024-01-30T03:16:56;24.73;;;2.83;;
4696;SDS011;2362;50.780;0.292;2024-01-30T03:19:22;17.50;;;2.93;;
4696;SDS011;2362;50.780;0.292;2024-01-30T03:21:48;21.77;;;2.40;;
4696;SDS011;2362;50.780;0.292;2024-01-30T03:24:14;19.30;;;2.37;;
4696;SDS011;2362;50.780;0.292;2024-01-30T03:26:40;7.17;;;1.50;;
4696;SDS011;2362;50.780;0.292;2024-01-30T03:29:05;13.83;;;1.90;;
4696;SDS011;2362;50.780;0.292;2024-01-30T03:31:31;9.13;;;1.70;;
4696;SDS011;2362;50.780;0.292;2024-01-30T03:33:57;9.90;;;2.00;;
4696;SDS011;2362;50.780;0.292;2024-01-30T03:36:23;8.53;;;1.47;;
4696;SDS011;2362;50.780;0.292;2024-01-30T03:38:49;9.97;;;1.70;;
4696;SDS011;2362;50.780;0.292;2024-01-30T03:41:14;14.80;;;2.07;;
4696;SDS011;2362;50.780;0.292;2024-01-30T03:43:40;21.73;;;2.60;;
4696;SDS011;2362;50.780;0.292;2024-01-30T03:46:06;13.23;;;2.03;;
4696;SDS011;2362;50.780;0.292;2024-01-30T03:48:32;16.77;;;2.60;;
4696;SDS011;2362;50.780;0.292;2024-01-30T03:50:57;14.17;;;2.20;;
4696;SDS011;2362;50.780;0.292;2024-01-30T03:53:23;16.13;;;2.40;;
4696;SDS011;2362;50.780;0.292;2024-01-30T03:55:49;17.07;;;2.30;;
4696;SDS011;2362;50.780;0.292;2024-01-30T03:58:15;11.90;;;2.20;;
4696;SDS011;2362;50.780;0.292;2024-01-30T04:00:40;13.33;;;2.00;;
4696;SDS011;2362;50.780;0.292;2024-01-30T04:03:06;18.37;;;2.93;;
4696;SDS011;2362;50.780;0.292;2024-01-30T04:05:32;13.57;;;2.47;;
4696;SDS011;2362;50.780;0.292;2024-01-30T04:07:57;23.07;;;3.20;;
4696;SDS011;2362;50.780;0.292;2024-01-30T04:10:24;16.17;;;2.40;;
4696;SDS011;2362;50.780;0.292;2024-01-30T04:12:52;13.57;;;2.03;;
4696;SDS011;2362;50.780;0.292;2024-01-30T04:15:19;14.40;;;2.13;;
4696;SDS011;2362;50.780;0.292;2024-01-30T04:17:44;14.27;;;2.63;;
4696;SDS011;2362;50.780;0.292;2024-01-30T04:20:13;19.43;;;2.20;;
4696;SDS011;2362;50.780;0.292;2024-01-30T04:22:43;14.33;;;2.07;;
4696;SDS011;2362;50.780;0.292;2024-01-30T04:25:10;15.93;;;2.43;;
4696;SDS011;2362;50.780;0.292;2024-01-30T04:27:36;12.57;;;2.17;;
4696;SDS011;2362;50.780;0.292;2024-01-30T04:30:02;18.00;;;4.00;;
4696;SDS011;2362;50.780;0.292;2024-01-30T04:32:28;7.67;;;2.23;;
4696;SDS011;2362;50.780;0.292;2024-01-30T04:34:54;19.70;;;2.63;;
4696;SDS011;2362;50.780;0.292;2024-01-30T04:37:20;15.27;;;2.80;;
4696;SDS011;2362;50.780;0.292;2024-01-30T04:39:45;17.87;;;3.40;;
4696;SDS011;2362;50.780;0.292;2024-01-30T04:42:11;14.30;;;2.97;;
4696;SDS011;2362;50.780;0.292;2024-01-30T04:44:37;12.43;;;2.00;;
4696;SDS011;2362;50.780;0.292;2024-01-30T04:47:02;15.23;;;2.37;;
4696;SDS011;2362;50.780;0.292;2024-01-30T04:49:30;10.83;;;1.80;;
4696;SDS011;2362;50.780;0.292;2024-01-30T04:51:55;10.70;;;1.90;;
4696;SDS011;2362;50.780;0.292;2024-01-30T04:54:21;13.57;;;2.57;;
4696;SDS011;2362;50.780;0.292;2024-01-30T04:56:47;15.50;;;2.37;;
4696;SDS011;2362;50.780;0.292;2024-01-30T04:59:13;15.90;;;2.10;;
4696;SDS011;2362;50.780;0.292;2024-01-30T05:01:38;7.37;;;1.63;;
4696;SDS011;2362;50.780;0.292;2024-01-30T05:04:04;6.73;;;2.30;;
4696;SDS011;2362;50.780;0.292;2024-01-30T05:06:33;14.10;;;1.60;;
4696;SDS011;2362;50.780;0.292;2024-01-30T05:08:58;12.00;;;1.80;;
4696;SDS011;2362;50.780;0.292;2024-01-30T05:11:24;14.50;;;1.80;;
4696;SDS011;2362;50.780;0.292;2024-01-30T05:13:49;11.60;;;1.63;;
4696;SDS011;2362;50.780;0.292;2024-01-30T05:16:15;11.57;;;2.30;;
4696;SDS011;2362;50.780;0.292;2024-01-30T05:18:41;13.67;;;1.80;;
4696;SDS011;2362;50.780;0.292;2024-01-30T05:21:06;10.77;;;1.83;;
4696;SDS011;2362;50.780;0.292;2024-01-30T05:23:32;14.50;;;2.23;;
4696;SDS011;2362;50.780;0.292;2024-01-30T05:25:58;16.50;;;2.53;;
4696;SDS011;2362;50.780;0.292;2024-01-30T05:28:25;10.53;;;1.67;;
4696;SDS011;2362;50.780;0.292;2024-01-30T05:30:51;12.63;;;2.57;;
4696;SDS011;2362;50.780;0.292;2024-01-30T05:33:17;11.47;;;1.97;;
4696;SDS011;2362;50.780;0.292;2024-01-30T05:35:43;11.50;;;2.43;;
4696;SDS011;2362;50.780;0.292;2024-01-30T05:38:08;11.37;;;2.40;;
4696;SDS011;2362;50.780;0.292;2024-01-30T05:40:34;11.87;;;2.37;;
4696;SDS011;2362;50.780;0.292;2024-01-30T05:42:59;9.60;;;2.67;;
4696;SDS011;2362;50.780;0.292;2024-01-30T05:45:27;12.60;;;2.47;;
4696;SDS011;2362;50.780;0.292;2024-01-30T05:47:53;13.80;;;1.90;;
4696;SDS011;2362;50.780;0.292;2024-01-30T05:50:19;7.90;;;1.60;;
4696;SDS011;2362;50.780;0.292;2024-01-30T05:52:45;10.53;;;1.93;;
4696;SDS011;2362;50.780;0.292;2024-01-30T05:55:12;9.90;;;1.47;;
4696;SDS011;2362;50.780;0.292;2024-01-30T05:57:37;8.23;;;1.47;;
4696;SDS011;2362;50.780;0.292;2024-01-30T06:00:04;6.90;;;1.67;;
4696;SDS011;2362;50.780;0.292;2024-01-30T06:02:31;8.77;;;1.67;;
4696;SDS011;2362;50.780;0.292;2024-01-30T06:04:56;9.43;;;1.50;;
4696;SDS011;2362;50.780;0.292;2024-01-30T06:07:23;8.13;;;1.40;;
4696;SDS011;2362;50.780;0.292;2024-01-30T06:09:48;9.73;;;2.00;;
4696;SDS011;2362;50.780;0.292;2024-01-30T06:12:14;9.20;;;1.60;;
4696;SDS011;2362;50.780;0.292;2024-01-30T06:14:40;8.00;;;1.70;;
4696;SDS011;2362;50.780;0.292;2024-01-30T06:17:07;6.37;;;1.37;;
4696;SDS011;2362;50.780;0.292;2024-01-30T06:19:33;7.70;;;1.77;;
4696;SDS011;2362;50.780;0.292;2024-01-30T06:21:59;6.43;;;1.47;;
4696;SDS011;2362;50.780;0.292;2024-01-30T06:24:25;3.80;;;1.20;;
4696;SDS011;2362;50.780;0.292;2024-01-30T06:26:52;9.70;;;1.33;;
4696;SDS011;2362;50.780;0.292;2024-01-30T06:29:18;5.77;;;1.30;;
4696;SDS011;2362;50.780;0.292;2024-01-30T06:31:44;7.47;;;1.37;;
4696;SDS011;2362;50.780;0.292;2024-01-30T06:34:09;4.97;;;1.00;;
4696;SDS011;2362;50.780;0.292;2024-01-30T06:36:37;9.53;;;1.67;;
4696;SDS011;2362;50.780;0.292;2024-01-30T06:39:03;11.50;;;1.67;;
4696;SDS011;2362;50.780;0.292;2024-01-30T06:41:29;9.37;;;1.40;;
4696;SDS011;2362;50.780;0.292;2024-01-30T06:43:58;8.67;;;1.77;;
4696;SDS011;2362;50.780;0.292;2024-01-30T06:46:24;8.63;;;1.23;;
4696;SDS011;2362;50.780;0.292;2024-01-30T06:48:49;10.70;;;1.67;;
4696;SDS011;2362;50.780;0.292;2024-01-30T06:51:15;10.70;;;1.97;;
4696;SDS011;2362;50.780;0.292;2024-01-30T06:53:41;7.97;;;1.80;;
4696;SDS011;2362;50.780;0.292;2024-01-30T06:56:06;8.20;;;1.63;;
4696;SDS011;2362;50.780;0.292;2024-01-30T06:58:32;10.07;;;1.40;;
4696;SDS011;2362;50.780;0.292;2024-01-30T07:00:58;5.17;;;1.10;;
4696;SDS011;2362;50.780;0.292;2024-01-30T07:03:24;7.90;;;1.60;;
4696;SDS011;2362;50.780;0.292;2024-01-30T07:05:49;9.97;;;1.53;;
4696;SDS011;2362;50.780;0.292;2024-01-30T07:08:15;6.80;;;1.40;;
4696;SDS011;2362;50.780;0.292;2024-01-30T07:10:44;6.53;;;1.70;;
4696;SDS011;2362;50.780;0.292;2024-01-30T07:13:10;7.87;;;1.10;;
4696;SDS011;2362;50.780;0.292;2024-01-30T07:15:36;2.83;;;0.70;;
4696;SDS011;2362;50.780;0.292;2024-01-30T07:18:03;3.40;;;0.90;;
4696;SDS011;2362;50.780;0.292;2024-01-30T07:20:29;3.03;;;1.23;;
4696;SDS011;2362;50.780;0.292;2024-01-30T07:22:57;3.53;;;0.97;;
4696;SDS011;2362;50.780;0.292;2024-01-30T07:25:23;4.07;;;1.00;;
4696;SDS011;2362;50.780;0.292;2024-01-30T07:27:52;7.20;;;0.93;;
4696;SDS011;2362;50.780;0.292;2024-01-30T07:30:18;2.23;;;0.80;;
4696;SDS011;2362;50.780;0.292;2024-01-30T07:32:48;2.93;;;0.77;;
4696;SDS011;2362;50.780;0.292;2024-01-30T07:35:14;2.00;;;0.70;;
4696;SDS011;2362;50.780;0.292;2024-01-30T07:37:39;4.97;;;1.23;;
4696;SDS011;2362;50.780;0.292;2024-01-30T07:40:05;2.30;;;1.10;;
4696;SDS011;2362;50.780;0.292;2024-01-30T07:42:32;3.63;;;1.33;;
4696;SDS011;2362;50.780;0.292;2024-01-30T07:44:58;3.60;;;0.97;;
4696;SDS011;2362;50.780;0.292;2024-01-30T07:47:25;5.43;;;1.70;;
4696;SDS011;2362;50.780;0.292;2024-01-30T07:49:50;3.20;;;1.00;;
4696;SDS011;2362;50.780;0.292;2024-01-30T07:52:16;12.67;;;1.20;;
4696;SDS011;2362;50.780;0.292;2024-01-30T07:54:42;10.17;;;1.40;;
4696;SDS011;2362;50.780;0.292;2024-01-30T07:57:08;3.90;;;1.37;;
4696;SDS011;2362;50.780;0.292;2024-01-30T07:59:33;6.07;;;1.70;;
4696;SDS011;2362;50.780;0.292;2024-01-30T08:01:59;5.30;;;1.30;;
4696;SDS011;2362;50.780;0.292;2024-01-30T08:04:24;5.67;;;1.63;;
4696;SDS011;2362;50.780;0.292;2024-01-30T08:06:50;8.93;;;2.00;;
4696;SDS011;2362;50.780;0.292;2024-01-30T08:09:16;3.70;;;1.67;;
4696;SDS011;2362;50.780;0.292;2024-01-30T08:11:41;7.27;;;2.13;;
4696;SDS011;2362;50.780;0.292;2024-01-30T08:14:07;2.87;;;1.40;;
4696;SDS011;2362;50.780;0.292;2024-01-30T08:16:32;3.97;;;1.37;;
4696;SDS011;2362;50.780;0.292;2024-01-30T08:18:58;5.70;;;1.77;;
4696;SDS011;2362;50.780;0.292;2024-01-30T08:21:24;3.47;;;1.77;;
4696;SDS011;2362;50.780;0.292;2024-01-30T08:23:49;8.00;;;1.40;;
4696;SDS011;2362;50.780;0.292;2024-01-30T08:26:16;6.43;;;1.47;;
4696;SDS011;2362;50.780;0.292;2024-01-30T08:28:42;10.27;;;1.33;;
4696;SDS011;2362;50.780;0.292;2024-01-30T08:31:07;8.53;;;1.23;;
4696;SDS011;2362;50.780;0.292;2024-01-30T08:33:37;4.80;;;1.30;;
4696;SDS011;2362;50.780;0.292;2024-01-30T08:36:02;5.40;;;1.50;;
4696;SDS011;2362;50.780;0.292;2024-01-30T08:38:28;8.27;;;1.50;;
4696;SDS011;2362;50.780;0.292;2024-01-30T08:40:54;7.73;;;1.47;;
4696;SDS011;2362;50.780;0.292;2024-01-30T08:43:20;9.17;;;1.80;;
4696;SDS011;2362;50.780;0.292;2024-01-30T08:45:46;11.13;;;2.43;;
4696;SDS011;2362;50.780;0.292;2024-01-30T08:48:12;7.23;;;2.20;;
4696;SDS011;2362;50.780;0.292;2024-01-30T08:50:37;9.93;;;1.73;;
4696;SDS011;2362;50.780;0.292;2024-01-30T08:53:03;4.67;;;1.60;;
4696;SDS011;2362;50.780;0.292;2024-01-30T08:55:29;5.03;;;1.80;;
4696;SDS011;2362;50.780;0.292;2024-01-30T08:57:55;4.97;;;1.93;;
4696;SDS011;2362;50.780;0.292;2024-01-30T09:00:21;5.77;;;1.83;;
4696;SDS011;2362;50.780;0.292;2024-01-30T09:02:46;7.47;;;1.90;;
4696;SDS011;2362;50.780;0.292;2024-01-30T09:05:12;5.00;;;2.17;;
4696;SDS011;2362;50.780;0.292;2024-01-30T09:07:38;7.27;;;2.00;;
4696;SDS011;2362;50.780;0.292;2024-01-30T09:10:03;12.20;;;2.13;;
4696;SDS011;2362;50.780;0.292;2024-01-30T09:12:29;9.80;;;2.90;;
4696;SDS011;2362;50.780;0.292;2024-01-30T09:14:55;4.07;;;2.80;;
4696;SDS011;2362;50.780;0.292;2024-01-30T09:17:21;8.13;;;3.53;;
4696;SDS011;2362;50.780;0.292;2024-01-30T09:19:47;5.70;;;2.70;;
4696;SDS011;2362;50.780;0.292;2024-01-30T09:22:12;4.97;;;2.50;;
4696;SDS011;2362;50.780;0.292;2024-01-30T09:24:38;8.00;;;3.27;;
4696;SDS011;2362;50.780;0.292;2024-01-30T09:27:04;4.20;;;2.37;;
4696;SDS011;2362;50.780;0.292;2024-01-30T09:29:31;5.83;;;2.77;;
4696;SDS011;2362;50.780;0.292;2024-01-30T09:31:59;5.90;;;2.50;;
4696;SDS011;2362;50.780;0.292;2024-01-30T09:34:25;8.80;;;2.57;;
4696;SDS011;2362;50.780;0.292;2024-01-30T09:36:50;8.30;;;2.50;;
4696;SDS011;2362;50.780;0.292;2024-01-30T09:39:16;10.83;;;2.50;;
4696;SDS011;2362;50.780;0.292;2024-01-30T09:42:25;9.40;;;3.20;;
4696;SDS011;2362;50.780;0.292;2024-01-30T09:44:45;7.73;;;3.10;;
4696;SDS011;2362;50.780;0.292;2024-01-30T09:47:15;8.43;;;2.60;;
4696;SDS011;2362;50.780;0.292;2024-01-30T09:49:43;7.50;;;3.47;;
4696;SDS011;2362;50.780;0.292;2024-01-30T09:52:09;10.10;;;2.53;;
4696;SDS011;2362;50.780;0.292;2024-01-30T09:54:35;13.93;;;3.50;;
4696;SDS011;2362;50.780;0.292;2024-01-30T09:57:03;7.47;;;2.50;;
4696;SDS011;2362;50.780;0.292;2024-01-30T09:59:29;7.23;;;2.47;;
4696;SDS011;2362;50.780;0.292;2024-01-30T10:01:55;9.83;;;2.90;;
4696;SDS011;2362;50.780;0.292;2024-01-30T10:04:22;8.10;;;2.60;;
4696;SDS011;2362;50.780;0.292;2024-01-30T10:06:48;8.80;;;3.27;;
4696;SDS011;2362;50.780;0.292;2024-01-30T10:09:14;12.90;;;3.30;;
4696;SDS011;2362;50.780;0.292;2024-01-30T10:11:40;15.33;;;5.23;;
4696;SDS011;2362;50.780;0.292;2024-01-30T10:14:05;8.47;;;4.20;;
4696;SDS011;2362;50.780;0.292;2024-01-30T10:16:31;10.43;;;3.53;;
4696;SDS011;2362;50.780;0.292;2024-01-30T10:18:57;10.27;;;3.83;;
4696;SDS011;2362;50.780;0.292;2024-01-30T10:21:22;9.20;;;3.47;;
4696;SDS011;2362;50.780;0.292;2024-01-30T10:23:49;8.83;;;3.70;;
4696;SDS011;2362;50.780;0.292;2024-01-30T10:26:18;7.30;;;3.10;;
4696;SDS011;2362;50.780;0.292;2024-01-30T10:28:44;7.20;;;3.00;;
4696;SDS011;2362;50.780;0.292;2024-01-30T10:31:09;10.07;;;3.30;;
4696;SDS011;2362;50.780;0.292;2024-01-30T10:33:35;9.37;;;1.93;;
4696;SDS011;2362;50.780;0.292;2024-01-30T10:36:01;9.33;;;2.37;;
4696;SDS011;2362;50.780;0.292;2024-01-30T10:38:28;9.47;;;2.63;;
4696;SDS011;2362;50.780;0.292;2024-01-30T10:40:56;10.80;;;2.60;;
4696;SDS011;2362;50.780;0.292;2024-01-30T10:43:32;12.17;;;3.30;;
4696;SDS011;2362;50.780;0.292;2024-01-30T10:46:04;12.80;;;2.40;;
4696;SDS011;2362;50.780;0.292;2024-01-30T10:48:39;16.80;;;2.90;;
4696;SDS011;2362;50.780;0.292;2024-01-30T10:51:09;9.90;;;2.70;;
4696;SDS011;2362;50.780;0.292;2024-01-30T10:53:36;5.70;;;2.10;;
4696;SDS011;2362;50.780;0.292;2024-01-30T10:56:02;15.33;;;3.23;;
4696;SDS011;2362;50.780;0.292;2024-01-30T10:58:29;8.83;;;2.80;;
4696;SDS011;2362;50.780;0.292;2024-01-30T11:00:55;11.70;;;2.70;;
4696;SDS011;2362;50.780;0.292;2024-01-30T11:03:21;10.33;;;2.70;;
4696;SDS011;2362;50.780;0.292;2024-01-30T11:05:51;7.10;;;2.70;;
4696;SDS011;2362;50.780;0.292;2024-01-30T11:08:23;5.17;;;2.00;;
4696;SDS011;2362;50.780;0.292;2024-01-30T11:10:54;6.60;;;2.40;;
4696;SDS011;2362;50.780;0.292;2024-01-30T11:13:21;8.37;;;2.77;;
4696;SDS011;2362;50.780;0.292;2024-01-30T11:15:47;11.67;;;3.63;;
4696;SDS011;2362;50.780;0.292;2024-01-30T11:18:22;13.23;;;2.97;;
4696;SDS011;2362;50.780;0.292;2024-01-30T11:20:51;9.70;;;2.63;;
4696;SDS011;2362;50.780;0.292;2024-01-30T11:23:17;8.50;;;3.00;;
4696;SDS011;2362;50.780;0.292;2024-01-30T11:25:45;8.60;;;2.63;;
4696;SDS011;2362;50.780;0.292;2024-01-30T11:28:15;12.03;;;2.93;;
4696;SDS011;2362;50.780;0.292;2024-01-30T11:30:41;14.97;;;3.63;;
4696;SDS011;2362;50.780;0.292;2024-01-30T11:33:11;11.57;;;3.47;;
4696;SDS011;2362;50.780;0.292;2024-01-30T11:35:39;9.50;;;3.13;;
4696;SDS011;2362;50.780;0.292;2024-01-30T11:38:09;10.50;;;3.50;;
4696;SDS011;2362;50.780;0.292;2024-01-30T11:40:39;10.87;;;3.30;;
4696;SDS011;2362;50.780;0.292;2024-01-30T11:43:06;16.27;;;3.63;;
4696;SDS011;2362;50.780;0.292;2024-01-30T11:45:33;11.73;;;3.20;;
4696;SDS011;2362;50.780;0.292;2024-01-30T11:48:00;14.83;;;3.70;;
4696;SDS011;2362;50.780;0.292;2024-01-30T11:50:28;12.93;;;3.10;;
4696;SDS011;2362;50.780;0.292;2024-01-30T11:52:54;9.67;;;2.93;;
4696;SDS011;2362;50.780;0.292;2024-01-30T11:55:20;11.23;;;3.13;;
4696;SDS011;2362;50.780;0.292;2024-01-30T11:57:46;13.63;;;3.60;;
4696;SDS011;2362;50.780;0.292;2024-01-30T12:00:15;8.23;;;3.43;;
4696;SDS011;2362;50.780;0.292;2024-01-30T12:02:42;10.43;;;3.93;;
4696;SDS011;2362;50.780;0.292;2024-01-30T12:05:08;14.90;;;3.90;;
4696;SDS011;2362;50.780;0.292;2024-01-30T12:07:34;26.73;;;4.00;;
4696;SDS011;2362;50.780;0.292;2024-01-30T12:10:01;9.77;;;3.20;;
4696;SDS011;2362;50.780;0.292;2024-01-30T12:12:27;12.40;;;3.47;;
4696;SDS011;2362;50.780;0.292;2024-01-30T12:14:56;8.13;;;3.77;;
4696;SDS011;2362;50.780;0.292;2024-01-30T12:17:23;12.63;;;3.60;;
4696;SDS011;2362;50.780;0.292;2024-01-30T12:19:49;15.00;;;3.77;;
4696;SDS011;2362;50.780;0.292;2024-01-30T12:22:15;8.37;;;2.93;;
4696;SDS011;2362;50.780;0.292;2024-01-30T12:24:41;16.10;;;3.67;;
4696;SDS011;2362;50.780;0.292;2024-01-30T12:27:06;11.67;;;3.70;;
4696;SDS011;2362;50.780;0.292;2024-01-30T12:29:32;8.10;;;2.83;;
4696;SDS011;2362;50.780;0.292;2024-01-30T12:31:58;6.90;;;2.60;;
4696;SDS011;2362;50.780;0.292;2024-01-30T12:34:24;11.37;;;3.40;;
4696;SDS011;2362;50.780;0.292;2024-01-30T12:36:50;8.57;;;3.23;;
4696;SDS011;2362;50.780;0.292;2024-01-30T12:39:16;9.37;;;2.83;;
4696;SDS011;2362;50.780;0.292;2024-01-30T12:41:42;16.23;;;3.50;;
4696;SDS011;2362;50.780;0.292;2024-01-30T12:44:07;6.90;;;2.77;;
4696;SDS011;2362;50.780;0.292;2024-01-30T12:46:36;7.60;;;3.20;;
4696;SDS011;2362;50.780;0.292;2024-01-30T12:49:02;13.67;;;3.77;;
4696;SDS011;2362;50.780;0.292;2024-01-30T12:51:28;9.20;;;2.43;;
4696;SDS011;2362;50.780;0.292;2024-01-30T12:53:54;12.43;;;3.30;;
4696;SDS011;2362;50.780;0.292;2024-01-30T12:56:19;6.87;;;2.87;;
4696;SDS011;2362;50.780;0.292;2024-01-30T12:58:45;6.70;;;2.97;;
4696;SDS011;2362;50.780;0.292;2024-01-30T13:01:10;14.37;;;3.23;;
4696;SDS011;2362;50.780;0.292;2024-01-30T13:03:36;12.97;;;3.17;;
4696;SDS011;2362;50.780;0.292;2024-01-30T13:06:02;13.70;;;3.67;;
4696;SDS011;2362;50.780;0.292;2024-01-30T13:08:28;8.97;;;2.60;;
4696;SDS011;2362;50.780;0.292;2024-01-30T13:10:53;13.50;;;3.33;;
4696;SDS011;2362;50.780;0.292;2024-01-30T13:13:19;13.77;;;3.43;;
4696;SDS011;2362;50.780;0.292;2024-01-30T13:15:44;14.47;;;4.20;;
4696;SDS011;2362;50.780;0.292;2024-01-30T13:18:10;12.93;;;4.27;;
4696;SDS011;2362;50.780;0.292;2024-01-30T13:20:36;15.83;;;4.23;;
4696;SDS011;2362;50.780;0.292;2024-01-30T13:23:01;16.43;;;3.30;;
4696;SDS011;2362;50.780;0.292;2024-01-30T13:25:27;12.33;;;3.20;;
4696;SDS011;2362;50.780;0.292;2024-01-30T13:27:52;10.37;;;3.60;;
4696;SDS011;2362;50.780;0.292;2024-01-30T13:30:18;15.37;;;3.87;;
4696;SDS011;2362;50.780;0.292;2024-01-30T13:32:44;11.83;;;3.83;;
4696;SDS011;2362;50.780;0.292;2024-01-30T13:35:11;13.00;;;3.53;;
4696;SDS011;2362;50.780;0.292;2024-01-30T13:37:36;11.50;;;3.77;;
4696;SDS011;2362;50.780;0.292;2024-01-30T13:40:04;15.80;;;4.30;;
4696;SDS011;2362;50.780;0.292;2024-01-30T13:42:38;14.10;;;3.60;;
4696;SDS011;2362;50.780;0.292;2024-01-30T13:45:04;13.73;;;4.03;;
4696;SDS011;2362;50.780;0.292;2024-01-30T13:47:30;16.33;;;4.40;;
4696;SDS011;2362;50.780;0.292;2024-01-30T13:49:55;16.83;;;3.80;;
4696;SDS011;2362;50.780;0.292;2024-01-30T13:52:21;14.77;;;3.73;;
4696;SDS011;2362;50.780;0.292;2024-01-30T13:54:47;12.10;;;3.60;;
4696;SDS011;2362;50.780;0.292;2024-01-30T13:57:13;12.90;;;4.40;;
4696;SDS011;2362;50.780;0.292;2024-01-30T13:59:38;8.60;;;3.67;;
4696;SDS011;2362;50.780;0.292;2024-01-30T14:02:05;17.27;;;4.10;;
4696;SDS011;2362;50.780;0.292;2024-01-30T14:04:33;19.73;;;4.27;;
4696;SDS011;2362;50.780;0.292;2024-01-30T14:06:59;13.50;;;3.87;;
4696;SDS011;2362;50.780;0.292;2024-01-30T14:09:24;13.07;;;4.27;;
4696;SDS011;2362;50.780;0.292;2024-01-30T14:11:50;13.70;;;3.87;;
4696;SDS011;2362;50.780;0.292;2024-01-30T14:14:16;15.23;;;4.03;;
4696;SDS011;2362;50.780;0.292;2024-01-30T14:16:41;14.97;;;4.10;;
4696;SDS011;2362;50.780;0.292;2024-01-30T14:19:07;14.73;;;3.70;;
4696;SDS011;2362;50.780;0.292;2024-01-30T14:21:32;15.10;;;4.13;;
4696;SDS011;2362;50.780;0.292;2024-01-30T14:23:58;10.67;;;3.63;;
4696;SDS011;2362;50.780;0.292;2024-01-30T14:26:24;13.70;;;3.80;;
4696;SDS011;2362;50.780;0.292;2024-01-30T14:28:49;16.50;;;4.57;;
4696;SDS011;2362;50.780;0.292;2024-01-30T14:31:15;21.47;;;4.47;;
4696;SDS011;2362;50.780;0.292;2024-01-30T14:33:43;12.63;;;4.10;;
4696;SDS011;2362;50.780;0.292;2024-01-30T14:36:09;17.17;;;4.50;;
4696;SDS011;2362;50.780;0.292;2024-01-30T14:38:35;18.27;;;4.37;;
4696;SDS011;2362;50.780;0.292;2024-01-30T14:41:00;15.67;;;3.33;;
4696;SDS011;2362;50.780;0.292;2024-01-30T14:43:26;15.13;;;4.03;;
4696;SDS011;2362;50.780;0.292;2024-01-30T14:45:51;26.00;;;5.33;;
4696;SDS011;2362;50.780;0.292;2024-01-30T14:48:17;18.20;;;4.47;;
4696;SDS011;2362;50.780;0.292;2024-01-30T14:50:43;21.23;;;3.90;;
4696;SDS011;2362;50.780;0.292;2024-01-30T14:53:08;11.03;;;3.50;;
4696;SDS011;2362;50.780;0.292;2024-01-30T14:55:34;18.13;;;4.20;;
4696;SDS011;2362;50.780;0.292;2024-01-30T14:57:59;16.70;;;3.53;;
4696;SDS011;2362;50.780;0.292;2024-01-30T15:00:27;11.20;;;4.23;;